Time;durP1;ratioP1;P1;durP2;ratioP2;P2;SDS_P1;SDS_P2;PMS_P1;PMS_P2;Temp;Humidity;BMP_temperature;BMP_pressure;BME280_temperature;BME280_humidity;BME280_pressure;Samples;Min_cycle;Max_cycle;Signal;HPM_P1;HPM_P2
2023/08/05 00:00:45;;;;;;;10.48;4.90;;;14.70;99.90;;;;;;5057251;28;20021;-74
2023/08/05 00:03:10;;;;;;;8.85;4.30;;;14.70;99.90;;;;;;5057532;28;20082;-74
2023/08/05 00:05:39;;;;;;;8.73;5.47;;;14.70;99.90;;;;;;5057169;28;20499;-74
2023/08/05 00:08:05;;;;;;;11.23;5.05;;;14.80;99.90;;;;;;5057186;28;20021;-74
2023/08/05 00:10:31;;;;;;;9.30;4.88;;;14.80;99.90;;;;;;5057324;28;20025;-74
2023/08/05 00:12:56;;;;;;;10.75;5.80;;;14.90;99.90;;;;;;5057040;28;20075;-74
2023/08/05 00:15:22;;;;;;;12.23;6.53;;;14.90;99.90;;;;;;5056740;28;20029;-74
2023/08/05 00:17:48;;;;;;;15.27;6.88;;;14.90;99.90;;;;;;5057418;28;20115;-74
2023/08/05 00:20:14;;;;;;;14.63;7.13;;;14.90;99.90;;;;;;5056879;28;20043;-74
2023/08/05 00:22:39;;;;;;;14.68;5.97;;;14.80;99.90;;;;;;5057189;28;20107;-74
2023/08/05 00:25:05;;;;;;;11.18;6.22;;;14.80;99.90;;;;;;5056825;28;20021;-74
2023/08/05 00:27:31;;;;;;;10.77;5.57;;;14.70;99.90;;;;;;5056860;28;20027;-74
2023/08/05 00:29:56;;;;;;;11.02;5.70;;;14.70;99.90;;;;;;5056474;28;20021;-74
2023/08/05 00:32:22;;;;;;;10.68;6.07;;;14.70;99.90;;;;;;5055421;28;20052;-74
2023/08/05 00:34:48;;;;;;;10.63;5.10;;;14.60;99.90;;;;;;5056656;28;20028;-73
2023/08/05 00:37:13;;;;;;;11.63;6.10;;;14.60;99.90;;;;;;5057225;28;20118;-74
2023/08/05 00:39:39;;;;;;;11.90;5.90;;;14.60;99.90;;;;;;5056288;28;20024;-73
2023/08/05 00:42:05;;;;;;;12.10;6.38;;;14.60;99.90;;;;;;5056826;28;20045;-74
2023/08/05 00:44:31;;;;;;;13.85;6.07;;;14.50;99.90;;;;;;5056778;28;20058;-74
2023/08/05 00:46:57;;;;;;;16.77;6.38;;;14.60;99.90;;;;;;5056704;28;20063;-74
2023/08/05 00:49:23;;;;;;;10.80;5.95;;;14.60;99.90;;;;;;5056423;28;20048;-74
2023/08/05 00:51:49;;;;;;;12.38;6.03;;;14.60;99.90;;;;;;5056550;28;20052;-73
2023/08/05 00:54:15;;;;;;;10.63;5.20;;;14.60;99.90;;;;;;5056147;28;20059;-74
2023/08/05 00:56:42;;;;;;;13.65;5.75;;;14.60;99.90;;;;;;5056283;28;20063;-73
2023/08/05 00:59:08;;;;;;;11.57;5.93;;;14.60;99.90;;;;;;5056777;28;20024;-73
2023/08/05 01:01:34;;;;;;;15.80;5.90;;;14.60;99.90;;;;;;5056170;28;20021;-73
2023/08/05 01:04:00;;;;;;;9.07;5.78;;;14.60;99.90;;;;;;5056358;28;20445;-73
2023/08/05 01:06:25;;;;;;;11.48;6.15;;;14.60;99.90;;;;;;5056560;28;20155;-74
2023/08/05 01:08:53;;;;;;;9.18;5.57;;;14.60;99.90;;;;;;5055950;28;20115;-73
2023/08/05 01:11:19;;;;;;;12.38;5.57;;;14.60;99.90;;;;;;5055937;28;20450;-72
2023/08/05 01:13:45;;;;;;;14.35;6.07;;;14.60;99.90;;;;;;5055855;28;20032;-72
2023/08/05 01:16:10;;;;;;;13.07;6.43;;;14.70;99.90;;;;;;5055808;28;20112;-73
2023/08/05 01:18:38;;;;;;;13.05;6.57;;;14.80;99.90;;;;;;5056084;28;20460;-73
2023/08/05 01:21:17;;;;;;;11.55;6.47;;;14.80;99.90;;;;;;5055785;28;20021;-73
2023/08/05 01:23:54;;;;;;;12.88;6.68;;;14.80;99.90;;;;;;5056077;28;20031;-73
2023/08/05 01:26:20;;;;;;;11.85;6.35;;;14.70;99.90;;;;;;5056283;28;20017;-73
2023/08/05 01:28:47;;;;;;;23.60;6.30;;;14.80;99.90;;;;;;5055656;28;20029;-74
2023/08/05 01:31:15;;;;;;;13.52;6.25;;;14.80;99.90;;;;;;5056115;28;20047;-73
2023/08/05 01:33:41;;;;;;;13.13;6.18;;;14.80;99.90;;;;;;5055471;28;20025;-74
2023/08/05 01:36:07;;;;;;;13.68;6.28;;;14.80;99.90;;;;;;5055553;28;20024;-73
2023/08/05 01:38:32;;;;;;;14.75;7.18;;;14.90;99.90;;;;;;5055447;28;20104;-73
2023/08/05 01:40:58;;;;;;;13.70;6.47;;;14.90;99.90;;;;;;5055470;28;20036;-73
2023/08/05 01:43:24;;;;;;;14.52;7.00;;;14.90;99.90;;;;;;5055456;28;20103;-74
2023/08/05 01:45:49;;;;;;;12.07;6.10;;;14.90;99.90;;;;;;5055328;28;20020;-74
2023/08/05 01:48:15;;;;;;;12.13;6.47;;;14.80;99.90;;;;;;5055009;28;20045;-73
2023/08/05 01:50:41;;;;;;;14.50;6.70;;;14.80;99.90;;;;;;5054463;28;20025;-73
2023/08/05 01:53:06;;;;;;;16.15;7.60;;;14.80;99.90;;;;;;5054861;28;20480;-74
2023/08/05 01:55:32;;;;;;;13.15;7.32;;;14.70;99.90;;;;;;5055243;28;20032;-73
2023/08/05 01:57:57;;;;;;;14.27;7.80;;;14.70;99.90;;;;;;5055105;28;20035;-73
2023/08/05 02:00:23;;;;;;;14.32;7.28;;;14.70;99.90;;;;;;5055071;28;20108;-73
2023/08/05 02:02:49;;;;;;;21.52;7.78;;;14.60;99.90;;;;;;5055308;28;20025;-74
2023/08/05 02:05:14;;;;;;;16.50;8.15;;;14.60;99.90;;;;;;5054815;28;20024;-73
2023/08/05 02:07:40;;;;;;;17.23;8.30;;;14.60;99.90;;;;;;5053763;28;20096;-73
2023/08/05 02:10:06;;;;;;;21.83;7.65;;;14.60;99.90;;;;;;5054863;28;20107;-73
2023/08/05 02:12:31;;;;;;;14.63;7.72;;;14.60;99.90;;;;;;5054987;28;20056;-73
2023/08/05 02:14:57;;;;;;;24.23;8.50;;;14.60;99.90;;;;;;5054718;28;20075;-73
2023/08/05 02:17:23;;;;;;;15.05;7.80;;;14.60;99.90;;;;;;5054878;28;20024;-73
2023/08/05 02:19:48;;;;;;;15.85;6.88;;;14.60;99.90;;;;;;5054688;28;20025;-73
2023/08/05 02:22:14;;;;;;;14.88;8.10;;;14.60;99.90;;;;;;5055156;28;20060;-72
2023/08/05 02:24:39;;;;;;;16.40;7.22;;;14.60;99.90;;;;;;5054300;28;20112;-73
2023/08/05 02:27:05;;;;;;;16.90;8.13;;;14.60;99.90;;;;;;5054505;28;20017;-73
2023/08/05 02:29:31;;;;;;;15.35;8.40;;;14.60;99.90;;;;;;5054935;28;20025;-73
2023/08/05 02:31:57;;;;;;;14.88;7.55;;;14.60;99.90;;;;;;5053356;28;20074;-73
2023/08/05 02:34:22;;;;;;;12.98;7.43;;;14.60;99.90;;;;;;5054843;28;20025;-73
2023/08/05 02:36:48;;;;;;;13.90;6.90;;;14.60;99.90;;;;;;5054935;28;20478;-73
2023/08/05 02:39:14;;;;;;;16.85;6.93;;;14.70;99.90;;;;;;5054270;28;20021;-73
2023/08/05 02:41:40;;;;;;;19.13;7.50;;;14.70;99.90;;;;;;5054282;28;20020;-74
2023/08/05 02:44:06;;;;;;;14.20;7.18;;;14.70;99.90;;;;;;5054372;28;20048;-73
2023/08/05 02:46:31;;;;;;;15.68;7.55;;;14.70;99.90;;;;;;5054193;28;20454;-73
2023/08/05 02:48:57;;;;;;;39.60;8.40;;;14.70;99.90;;;;;;5053549;28;20037;-74
2023/08/05 02:51:22;;;;;;;79.57;8.18;;;14.70;99.90;;;;;;5054054;28;20408;-73
2023/08/05 02:53:48;;;;;;;26.95;7.63;;;14.70;99.90;;;;;;5054681;28;20083;-73
2023/08/05 02:56:15;;;;;;;15.38;7.63;;;14.60;99.90;;;;;;5053674;28;20099;-74
2023/08/05 02:58:40;;;;;;;12.68;7.45;;;14.60;99.90;;;;;;5054413;28;20372;-73
2023/08/05 03:01:08;;;;;;;15.25;8.07;;;14.60;99.90;;;;;;5053671;28;20079;-74
2023/08/05 03:03:35;;;;;;;17.08;8.48;;;14.60;99.90;;;;;;5053826;28;20025;-74
2023/08/05 03:06:00;;;;;;;18.75;8.25;;;14.50;99.90;;;;;;5054094;28;20017;-73
2023/08/05 03:08:26;;;;;;;16.27;8.73;;;14.50;99.90;;;;;;5053804;28;20028;-74
2023/08/05 03:10:59;;;;;;;18.63;9.07;;;14.50;99.90;;;;;;5053788;28;20024;-73
2023/08/05 03:13:25;;;;;;;15.75;8.27;;;14.40;99.90;;;;;;5053662;28;20029;-74
2023/08/05 03:15:51;;;;;;;18.25;9.27;;;14.40;99.90;;;;;;5053672;28;20029;-74
2023/08/05 03:18:16;;;;;;;15.45;8.20;;;14.40;99.90;;;;;;5053852;28;20040;-73
2023/08/05 03:20:43;;;;;;;24.48;9.05;;;14.40;99.90;;;;;;5053599;28;20334;-73
2023/08/05 03:23:09;;;;;;;16.40;8.13;;;14.40;99.90;;;;;;5053656;28;20420;-73
2023/08/05 03:25:35;;;;;;;18.25;8.57;;;14.40;99.90;;;;;;5053520;28;20060;-73
2023/08/05 03:28:00;;;;;;;16.60;8.73;;;14.40;99.90;;;;;;5053967;28;20469;-73
2023/08/05 03:30:26;;;;;;;16.50;8.63;;;14.40;99.90;;;;;;5053211;28;20101;-73
2023/08/05 03:32:51;;;;;;;19.25;9.05;;;14.40;99.90;;;;;;5053680;28;20376;-72
2023/08/05 03:35:17;;;;;;;23.75;9.27;;;14.40;99.90;;;;;;5053655;28;20024;-73
2023/08/05 03:37:44;;;;;;;21.80;9.82;;;14.40;99.90;;;;;;5053436;28;20021;-73
2023/08/05 03:40:11;;;;;;;17.35;8.55;;;14.40;99.90;;;;;;5053863;28;20121;-72
2023/08/05 03:42:37;;;;;;;20.42;8.95;;;14.40;99.90;;;;;;5053410;28;20411;-72
2023/08/05 03:45:04;;;;;;;17.58;8.68;;;14.40;99.90;;;;;;5053349;28;20017;-73
2023/08/05 03:47:30;;;;;;;19.25;9.07;;;14.40;99.90;;;;;;5053543;28;20025;-73
2023/08/05 03:49:56;;;;;;;21.23;8.93;;;14.30;99.90;;;;;;5053625;28;20128;-72
2023/08/05 03:52:21;;;;;;;21.88;9.90;;;14.30;99.90;;;;;;5053807;28;20112;-73
2023/08/05 03:54:47;;;;;;;17.10;8.48;;;14.30;99.90;;;;;;5053266;28;20440;-73
2023/08/05 03:57:13;;;;;;;19.90;9.38;;;14.30;99.90;;;;;;5053569;28;20339;-73
2023/08/05 03:59:40;;;;;;;19.70;9.57;;;14.30;99.90;;;;;;5053540;28;20058;-73
2023/08/05 04:02:07;;;;;;;26.25;10.10;;;14.20;99.90;;;;;;5052186;28;20021;-74
2023/08/05 04:04:32;;;;;;;18.75;8.95;;;14.20;99.90;;;;;;5053180;28;20342;-73
2023/08/05 04:06:58;;;;;;;28.15;9.20;;;14.30;99.90;;;;;;5051889;28;20028;-73
2023/08/05 04:09:25;;;;;;;20.20;9.55;;;14.20;99.90;;;;;;5053220;28;20029;-73
2023/08/05 04:11:51;;;;;;;22.27;9.25;;;14.20;99.90;;;;;;5053078;28;20519;-73
2023/08/05 04:14:20;;;;;;;24.23;9.75;;;14.20;99.90;;;;;;5053508;28;20041;-73
2023/08/05 04:16:49;;;;;;;24.17;8.80;;;14.30;99.90;;;;;;5053114;28;20109;-73
2023/08/05 04:19:15;;;;;;;20.30;9.90;;;14.20;99.90;;;;;;5054017;28;20025;-73
2023/08/05 04:21:46;;;;;;;21.15;9.43;;;14.30;99.90;;;;;;5053605;28;20078;-73
2023/08/05 04:24:13;;;;;;;23.05;10.48;;;14.30;99.90;;;;;;5053378;28;20111;-74
2023/08/05 04:26:40;;;;;;;21.35;10.45;;;14.30;99.90;;;;;;5053415;28;20053;-74
2023/08/05 04:29:06;;;;;;;28.65;11.48;;;14.30;99.90;;;;;;5052961;28;20021;-74
2023/08/05 04:31:32;;;;;;;23.42;10.88;;;14.30;99.90;;;;;;5056818;28;20060;-74
2023/08/05 04:33:57;;;;;;;22.52;10.88;;;14.30;99.90;;;;;;5056861;28;20104;-72
2023/08/05 04:36:23;;;;;;;23.83;11.73;;;14.30;99.90;;;;;;5056638;28;20036;-73
2023/08/05 04:38:49;;;;;;;25.65;11.30;;;14.30;99.90;;;;;;5057130;28;20074;-73
2023/08/05 04:41:14;;;;;;;28.13;11.32;;;14.30;99.90;;;;;;5055222;28;20108;-73
2023/08/05 04:43:40;;;;;;;26.27;11.60;;;14.30;99.90;;;;;;5056489;28;20115;-73
2023/08/05 04:46:06;;;;;;;29.60;12.38;;;14.30;99.90;;;;;;5056738;28;20047;-73
2023/08/05 04:48:31;;;;;;;27.67;12.38;;;14.40;99.90;;;;;;5056901;28;20522;-74
2023/08/05 04:50:57;;;;;;;28.73;12.10;;;14.40;99.90;;;;;;5056492;28;20505;-73
2023/08/05 04:53:22;;;;;;;27.20;13.10;;;14.30;99.90;;;;;;5056279;28;20037;-73
2023/08/05 04:55:48;;;;;;;28.75;12.52;;;14.30;99.90;;;;;;5056429;28;20064;-73
2023/08/05 04:58:14;;;;;;;30.30;12.70;;;14.40;99.90;;;;;;5056671;28;20081;-73
2023/08/05 05:00:39;;;;;;;27.58;12.30;;;14.30;99.90;;;;;;5056398;28;20025;-73
2023/08/05 05:03:06;;;;;;;31.02;12.73;;;14.40;99.90;;;;;;5056109;28;20024;-73
2023/08/05 05:05:33;;;;;;;29.13;12.35;;;14.40;99.90;;;;;;5056576;28;20358;-73
2023/08/05 05:07:59;;;;;;;33.15;12.95;;;14.40;99.90;;;;;;5056014;28;20033;-72
2023/08/05 05:10:25;;;;;;;28.25;12.18;;;14.40;99.90;;;;;;5055990;28;20061;-73
2023/08/05 05:12:51;;;;;;;28.70;12.70;;;14.40;99.90;;;;;;5056684;28;20033;-73
2023/08/05 05:15:19;;;;;;;28.67;13.68;;;14.40;99.90;;;;;;5056022;28;20029;-73
2023/08/05 05:17:45;;;;;;;26.33;12.20;;;14.40;99.90;;;;;;5056404;28;20025;-73
2023/08/05 05:20:11;;;;;;;26.98;13.20;;;14.40;99.90;;;;;;5055570;28;20029;-73
2023/08/05 05:22:36;;;;;;;33.50;12.82;;;14.40;99.90;;;;;;5056266;28;20037;-74
2023/08/05 05:25:02;;;;;;;30.75;13.73;;;14.40;99.90;;;;;;5055461;28;20028;-74
2023/08/05 05:27:28;;;;;;;26.02;13.35;;;14.50;99.90;;;;;;5055778;28;20020;-74
2023/08/05 05:29:53;;;;;;;27.55;13.13;;;14.50;99.90;;;;;;5055938;28;20028;-74
2023/08/05 05:32:19;;;;;;;28.08;12.38;;;14.50;99.90;;;;;;5055498;28;20029;-74
2023/08/05 05:34:45;;;;;;;25.45;12.93;;;14.50;99.90;;;;;;5055623;28;20056;-74
2023/08/05 05:37:10;;;;;;;31.55;13.98;;;14.50;99.90;;;;;;5056047;28;20063;-74
2023/08/05 05:39:36;;;;;;;34.03;14.27;;;14.60;99.90;;;;;;5054216;28;20035;-74
2023/08/05 05:42:02;;;;;;;30.17;13.27;;;14.50;99.90;;;;;;5054185;28;20017;-74
2023/08/05 05:44:28;;;;;;;28.42;14.05;;;14.50;99.90;;;;;;5055422;28;20021;-74
2023/08/05 05:46:54;;;;;;;28.42;13.75;;;14.50;99.90;;;;;;5055390;28;20028;-73
2023/08/05 05:49:19;;;;;;;31.10;13.52;;;14.60;99.90;;;;;;5055441;28;20167;-73
2023/08/05 05:51:48;;;;;;;29.08;13.40;;;14.60;99.90;;;;;;5055822;28;20060;-74
2023/08/05 05:54:14;;;;;;;26.60;13.15;;;14.60;99.90;;;;;;5055173;28;20021;-73
2023/08/05 05:56:40;;;;;;;36.90;13.52;;;14.70;99.90;;;;;;5055110;28;20017;-73
2023/08/05 05:59:06;;;;;;;26.77;13.65;;;14.70;99.90;;;;;;5055474;28;20021;-74
2023/08/05 06:01:31;;;;;;;30.98;14.50;;;14.70;99.90;;;;;;5055085;28;20519;-74
2023/08/05 06:03:57;;;;;;;28.75;13.30;;;14.80;99.90;;;;;;5055019;28;20470;-73
2023/08/05 06:06:23;;;;;;;33.70;14.40;;;14.80;99.90;;;;;;5055207;28;20071;-74
2023/08/05 06:08:49;;;;;;;30.35;13.68;;;14.80;99.90;;;;;;5055585;28;20104;-74
2023/08/05 06:11:14;;;;;;;31.02;13.82;;;14.80;99.90;;;;;;5054841;28;20025;-74
2023/08/05 06:13:40;;;;;;;28.15;13.18;;;14.90;99.90;;;;;;5055023;28;20056;-73
2023/08/05 06:16:06;;;;;;;29.13;13.40;;;14.90;99.90;;;;;;5055023;28;20035;-74
2023/08/05 06:18:31;;;;;;;27.23;13.10;;;15.00;99.90;;;;;;5055530;28;20025;-73
2023/08/05 06:20:57;;;;;;;29.55;13.52;;;15.00;99.90;;;;;;5054713;28;20029;-74
2023/08/05 06:23:23;;;;;;;26.10;13.60;;;15.00;99.90;;;;;;5054672;28;20028;-74
2023/08/05 06:25:48;;;;;;;33.40;13.75;;;15.00;99.90;;;;;;5054886;28;20357;-74
2023/08/05 06:28:14;;;;;;;25.63;13.35;;;15.00;99.90;;;;;;5054260;28;20013;-73
2023/08/05 06:30:43;;;;;;;27.83;13.38;;;15.00;99.90;;;;;;5054549;28;20021;-74
2023/08/05 06:33:09;;;;;;;28.00;13.32;;;15.00;99.90;;;;;;5054346;28;20028;-74
2023/08/05 06:35:35;;;;;;;30.33;14.05;;;15.00;99.90;;;;;;5054130;28;20026;-75
2023/08/05 06:38:01;;;;;;;26.90;13.38;;;15.00;99.90;;;;;;5054333;28;20051;-74
2023/08/05 06:40:27;;;;;;;30.02;14.10;;;15.00;99.90;;;;;;5054327;28;20032;-74
2023/08/05 06:42:52;;;;;;;28.83;13.95;;;15.10;99.90;;;;;;5054290;28;20029;-73
2023/08/05 06:45:18;;;;;;;30.10;13.55;;;15.20;99.90;;;;;;5054172;28;20021;-74
2023/08/05 06:47:44;;;;;;;26.58;13.23;;;15.30;99.90;;;;;;5053707;28;20053;-74
2023/08/05 06:50:10;;;;;;;26.75;12.63;;;15.30;99.90;;;;;;5054454;28;20025;-73
2023/08/05 06:52:35;;;;;;;32.63;13.52;;;15.40;99.90;;;;;;5053424;28;20436;-74
2023/08/05 06:55:03;;;;;;;27.05;12.40;;;15.50;99.90;;;;;;5054007;28;20113;-74
2023/08/05 06:57:30;;;;;;;24.95;12.63;;;15.50;99.90;;;;;;5053917;28;20020;-73
2023/08/05 06:59:56;;;;;;;23.85;11.93;;;15.50;99.90;;;;;;5053902;28;20107;-73
2023/08/05 07:02:21;;;;;;;27.15;12.52;;;15.50;99.90;;;;;;5053936;28;20104;-74
2023/08/05 07:04:47;;;;;;;21.73;12.27;;;15.60;99.90;;;;;;5053704;28;20028;-74
2023/08/05 07:07:13;;;;;;;23.23;12.02;;;15.60;99.90;;;;;;5054110;28;20021;-73
2023/08/05 07:09:39;;;;;;;26.98;12.63;;;15.60;99.90;;;;;;5053691;28;20016;-73
2023/08/05 07:12:05;;;;;;;24.65;12.45;;;15.60;99.90;;;;;;5052712;28;20164;-74
2023/08/05 07:14:32;;;;;;;22.52;11.82;;;15.60;99.90;;;;;;5053692;28;20044;-74
2023/08/05 07:16:58;;;;;;;27.45;11.13;;;15.60;99.90;;;;;;5053691;28;20036;-74
2023/08/05 07:19:23;;;;;;;21.95;12.32;;;15.60;99.90;;;;;;5054397;28;20345;-74
2023/08/05 07:21:50;;;;;;;22.42;11.65;;;15.60;99.90;;;;;;5053761;28;20053;-74
2023/08/05 07:24:17;;;;;;;26.92;11.80;;;15.70;99.90;;;;;;5052789;28;20465;-74
2023/08/05 07:26:43;;;;;;;24.85;11.88;;;15.60;99.90;;;;;;5053849;28;20035;-74
2023/08/05 07:29:08;;;;;;;25.08;11.88;;;15.60;99.90;;;;;;5053546;28;20029;-74
2023/08/05 07:31:34;;;;;;;24.55;11.68;;;15.70;99.90;;;;;;5052264;28;20055;-74
2023/08/05 07:34:00;;;;;;;20.90;11.18;;;15.80;99.90;;;;;;5053340;28;20061;-73
2023/08/05 07:36:27;;;;;;;21.73;11.30;;;15.80;99.90;;;;;;5053541;28;20408;-74
2023/08/05 07:38:54;;;;;;;24.80;10.88;;;15.90;99.90;;;;;;5053761;28;20394;-73
2023/08/05 07:41:22;;;;;;;27.77;11.38;;;16.00;99.90;;;;;;5053422;28;20025;-74
2023/08/05 07:43:47;;;;;;;20.75;11.32;;;16.00;99.90;;;;;;5053353;28;20082;-73
2023/08/05 07:46:13;;;;;;;21.73;11.48;;;15.90;99.90;;;;;;5053047;28;20057;-73
2023/08/05 07:48:40;;;;;;;21.73;11.23;;;15.90;99.90;;;;;;5053005;28;20045;-73
2023/08/05 07:51:06;;;;;;;20.83;11.43;;;15.90;99.90;;;;;;5053928;28;20021;-74
2023/08/05 07:53:38;;;;;;;20.55;11.43;;;16.10;99.90;;;;;;5053312;28;20028;-74
2023/08/05 07:56:14;;;;;;;21.70;10.38;;;16.20;99.90;;;;;;5053287;28;20032;-74
2023/08/05 07:58:44;;;;;;;18.33;10.30;;;16.30;99.90;;;;;;5053481;28;20067;-74
2023/08/05 08:01:12;;;;;;;16.53;10.17;;;16.30;99.90;;;;;;5053196;28;20028;-74
2023/08/05 08:03:38;;;;;;;17.75;9.18;;;16.30;99.90;;;;;;5052753;28;20415;-73
2023/08/05 08:06:03;;;;;;;16.80;9.00;;;16.50;99.90;;;;;;5056943;28;20017;-73
2023/08/05 08:08:29;;;;;;;15.57;8.55;;;16.70;99.90;;;;;;5057229;28;20020;-74
2023/08/05 08:10:55;;;;;;;17.13;8.85;;;16.90;99.90;;;;;;5056902;28;20020;-73
2023/08/05 08:13:20;;;;;;;16.38;8.65;;;17.20;99.90;;;;;;5055820;28;20028;-73
2023/08/05 08:15:46;;;;;;;14.50;7.93;;;17.30;99.90;;;;;;5057107;28;20457;-72
2023/08/05 08:18:12;;;;;;;14.55;7.50;;;17.30;99.90;;;;;;5057100;28;20446;-73
2023/08/05 08:20:37;;;;;;;14.15;8.13;;;17.50;99.90;;;;;;5056766;28;20028;-74
2023/08/05 08:23:03;;;;;;;14.60;8.38;;;17.50;99.90;;;;;;5055669;28;20025;-75
2023/08/05 08:25:29;;;;;;;14.15;8.38;;;17.30;99.90;;;;;;5057102;28;20032;-74
2023/08/05 08:27:55;;;;;;;17.63;9.55;;;17.10;99.90;;;;;;5057381;28;20456;-74
2023/08/05 08:30:20;;;;;;;15.60;8.35;;;16.90;99.90;;;;;;5057078;28;20067;-74
2023/08/05 08:32:46;;;;;;;16.98;8.52;;;16.90;99.90;;;;;;5056993;28;20025;-76
2023/08/05 08:35:11;;;;;;;24.00;8.05;;;16.90;99.90;;;;;;5055646;28;20114;-74
2023/08/05 08:37:37;;;;;;;14.75;8.32;;;16.80;99.90;;;;;;5056623;28;20401;-73
2023/08/05 08:40:04;;;;;;;12.55;8.05;;;16.80;99.90;;;;;;5056720;28;20151;-74
2023/08/05 08:42:31;;;;;;;14.07;7.68;;;16.80;99.90;;;;;;5057349;28;20033;-74
2023/08/05 08:45:00;;;;;;;14.82;7.90;;;16.70;99.90;;;;;;5056915;28;20465;-74
2023/08/05 08:47:26;;;;;;;20.10;8.05;;;16.80;99.90;;;;;;5055236;28;20463;-75
2023/08/05 08:49:54;;;;;;;13.52;7.90;;;16.80;99.90;;;;;;5057464;28;20057;-74
2023/08/05 08:52:20;;;;;;;17.30;10.30;;;16.70;99.90;;;;;;5056721;28;20044;-74
2023/08/05 08:54:50;;;;;;;20.40;11.10;;;16.70;99.90;;;;;;5056341;28;20419;-74
2023/08/05 08:57:16;;;;;;;23.20;13.35;;;16.60;99.90;;;;;;5056335;28;20495;-74
2023/08/05 08:59:41;;;;;;;25.20;12.38;;;16.40;99.90;;;;;;5056229;28;20025;-73
2023/08/05 09:02:11;;;;;;;24.05;13.25;;;16.30;99.90;;;;;;5055816;28;20025;-74
2023/08/05 09:04:40;;;;;;;21.80;11.85;;;16.30;99.90;;;;;;5054825;28;20051;-74
2023/08/05 09:07:06;;;;;;;22.08;12.05;;;16.20;99.90;;;;;;5056135;28;20361;-75
2023/08/05 09:09:31;;;;;;;25.35;12.70;;;16.10;99.90;;;;;;5056227;28;20024;-73
2023/08/05 09:11:58;;;;;;;21.70;12.48;;;16.10;99.90;;;;;;5055083;28;20386;-75
2023/08/05 09:14:23;;;;;;;24.02;12.23;;;16.10;99.90;;;;;;5056416;28;20021;-75
2023/08/05 09:17:00;;;;;;;23.35;11.90;;;16.10;99.90;;;;;;5056206;28;20031;-77
2023/08/05 09:19:29;;;;;;;27.80;12.70;;;16.10;99.90;;;;;;5056688;28;20032;-75
2023/08/05 09:21:56;;;;;;;19.40;11.27;;;16.20;99.90;;;;;;5056266;28;20029;-76
2023/08/05 09:24:23;;;;;;;17.45;10.93;;;16.20;99.90;;;;;;5056191;28;20025;-76
2023/08/05 09:26:57;;;;;;;21.25;11.15;;;16.30;99.90;;;;;;5055966;28;20032;-77
2023/08/05 09:29:24;;;;;;;20.88;11.45;;;16.30;99.90;;;;;;5055909;28;20032;-78
2023/08/05 09:32:08;;;;;;;22.70;11.18;;;16.50;99.90;;;;;;5055786;28;20385;-77
2023/08/05 09:34:38;;;;;;;16.35;10.25;;;16.50;99.90;;;;;;5055712;28;20035;-78
2023/08/05 09:37:08;;;;;;;19.58;10.73;;;16.70;99.90;;;;;;5055383;28;20112;-77
2023/08/05 09:39:47;;;;;;;17.50;9.90;;;16.80;99.90;;;;;;5055572;28;20035;-79
2023/08/05 09:42:24;;;;;;;18.85;10.80;;;16.90;99.90;;;;;;5055616;28;20449;-76
2023/08/05 09:44:53;;;;;;;18.80;11.40;;;17.00;99.90;;;;;;5055495;28;20103;-75
2023/08/05 09:47:25;;;;;;;18.98;10.73;;;17.20;99.90;;;;;;5055547;28;20469;-75
2023/08/05 09:49:52;;;;;;;17.17;9.90;;;17.40;99.90;;;;;;5055855;28;20049;-76
2023/08/05 09:52:20;;;;;;;17.20;10.05;;;17.40;99.90;;;;;;5055430;28;20029;-75
2023/08/05 09:55:07;;;;;;;21.95;11.32;;;17.40;99.90;;;;;;5055499;28;20420;-77
2023/08/05 09:57:33;;;;;;;22.15;9.60;;;17.60;99.90;;;;;;5055535;28;20103;-75
2023/08/05 10:00:02;;;;;;;15.80;9.65;;;17.70;99.90;;;;;;5055281;28;20025;-75
2023/08/05 10:02:30;;;;;;;24.38;10.27;;;17.70;99.90;;;;;;5053904;28;20021;-74
2023/08/05 10:04:56;;;;;;;19.35;10.40;;;17.70;99.90;;;;;;5054704;28;20475;-75
2023/08/05 10:07:24;;;;;;;14.25;9.07;;;18.00;99.90;;;;;;5055911;28;20028;-76
2023/08/05 10:09:50;;;;;;;15.48;9.38;;;18.00;99.90;;;;;;5054909;28;20514;-76
2023/08/05 10:12:22;;;;;;;15.73;8.75;;;18.10;99.90;;;;;;5054864;28;20488;-74
2023/08/05 10:14:49;;;;;;;14.93;9.25;;;18.30;99.90;;;;;;5054925;28;20108;-75
2023/08/05 10:17:18;;;;;;;22.83;8.40;;;18.30;99.90;;;;;;5054801;28;20051;-75
2023/08/05 10:19:49;;;;;;;14.48;8.73;;;18.50;99.90;;;;;;5054700;28;20033;-77
2023/08/05 10:22:23;;;;;;;13.73;7.88;;;18.70;99.90;;;;;;5053539;28;20024;-75
2023/08/05 10:24:57;;;;;;;13.68;7.30;;;18.50;99.90;;;;;;5054729;28;20398;-75
2023/08/05 10:27:40;;;;;;;10.30;6.95;;;18.50;99.90;;;;;;5053967;28;20029;-74
2023/08/05 10:30:11;;;;;;;14.52;6.97;;;18.60;99.90;;;;;;5053252;28;20067;-76
2023/08/05 10:32:48;;;;;;;10.10;7.20;;;18.50;99.90;;;;;;5055046;28;20060;-77
2023/08/05 10:35:42;;;;;;;9.60;6.18;;;18.60;99.90;;;;;;5054692;28;20051;-76
2023/08/05 10:38:18;;;;;;;14.95;7.68;;;19.10;99.90;;;;;;5054906;28;20032;-74
2023/08/05 10:40:49;;;;;;;11.15;6.57;;;19.80;99.90;;;;;;5054636;28;20156;-76
2023/08/05 10:43:33;;;;;;;9.40;5.95;;;20.20;99.90;;;;;;5054822;28;20032;-74
2023/08/05 10:46:05;;;;;;;13.55;6.30;;;20.20;99.90;;;;;;5054291;28;20067;-74
2023/08/05 10:48:42;;;;;;;10.15;6.65;;;20.00;99.90;;;;;;5053718;28;20045;-75
2023/08/05 10:51:12;;;;;;;14.02;6.90;;;19.90;99.90;;;;;;5053547;28;20029;-76
2023/08/05 10:53:38;;;;;;;11.70;5.97;;;19.80;99.90;;;;;;5054299;28;20067;-75
2023/08/05 10:56:10;;;;;;;9.70;5.13;;;19.90;99.90;;;;;;5054006;28;20474;-74
2023/08/05 10:58:37;;;;;;;16.75;6.22;;;20.00;99.90;;;;;;5053666;28;20028;-74
2023/08/05 11:01:04;;;;;;;11.00;5.10;;;20.20;99.90;;;;;;5054545;28;20078;-75
2023/08/05 11:03:43;;;;;;;10.43;5.78;;;20.50;99.90;;;;;;5054578;28;20100;-75
2023/08/05 11:06:10;;;;;;;9.15;5.15;;;20.40;99.90;;;;;;5054487;28;20024;-75
2023/08/05 11:08:37;;;;;;;17.02;10.15;;;20.00;99.90;;;;;;5054434;28;20058;-76
2023/08/05 11:11:07;;;;;;;10.43;6.93;;;19.90;99.90;;;;;;5053903;28;20021;-77
2023/08/05 11:13:35;;;;;;;11.15;6.45;;;19.70;99.90;;;;;;5053894;28;20112;-75
2023/08/05 11:16:04;;;;;;;9.98;6.25;;;19.40;99.90;;;;;;5053772;28;20036;-75
2023/08/05 11:18:30;;;;;;;13.82;6.78;;;19.50;99.90;;;;;;5053752;28;20025;-76
2023/08/05 11:20:58;;;;;;;12.98;6.13;;;19.50;99.90;;;;;;5053769;28;20043;-76
2023/08/05 11:23:24;;;;;;;7.97;5.60;;;19.40;99.90;;;;;;5053448;28;20035;-76
2023/08/05 11:25:53;;;;;;;7.43;4.70;;;19.30;99.90;;;;;;5053448;28;20543;-76
2023/08/05 11:28:20;;;;;;;9.25;5.18;;;19.20;99.90;;;;;;5053728;28;20100;-77
2023/08/05 11:30:46;;;;;;;8.80;5.10;;;19.30;99.90;;;;;;5054139;28;20066;-76
2023/08/05 11:33:12;;;;;;;8.75;5.15;;;19.40;99.90;;;;;;5053607;28;20071;-76
2023/08/05 11:35:47;;;;;;;7.47;5.18;;;19.50;99.90;;;;;;5053911;28;20100;-76
2023/08/05 11:38:17;;;;;;;6.47;4.70;;;19.60;99.90;;;;;;5053984;28;20112;-76
2023/08/05 11:40:48;;;;;;;8.07;5.47;;;19.60;99.90;;;;;;5053542;28;20021;-75
2023/08/05 11:43:16;;;;;;;8.52;4.20;;;19.70;99.90;;;;;;5054081;28;20025;-75
2023/08/05 11:45:42;;;;;;;7.85;4.72;;;19.60;99.90;;;;;;5053022;28;20404;-75
2023/08/05 11:48:21;;;;;;;8.25;4.75;;;19.60;99.90;;;;;;5053125;28;20048;-77
2023/08/05 11:50:48;;;;;;;7.47;4.13;;;19.40;99.90;;;;;;5053462;28;20129;-75
2023/08/05 11:53:14;;;;;;;9.23;4.80;;;19.30;99.90;;;;;;5053371;28;20436;-75
2023/08/05 11:55:42;;;;;;;8.98;5.05;;;19.20;99.90;;;;;;5053374;28;20053;-76
2023/08/05 11:58:08;;;;;;;8.82;5.30;;;19.20;99.90;;;;;;5053220;28;20368;-76
2023/08/05 12:00:33;;;;;;;9.63;5.63;;;19.10;99.90;;;;;;5053394;28;20108;-76
2023/08/05 12:03:02;;;;;;;8.57;5.55;;;19.10;99.90;;;;;;5053109;28;20025;-75
2023/08/05 12:05:28;;;;;;;9.68;5.40;;;19.20;99.90;;;;;;5053030;28;20029;-77
2023/08/05 12:07:54;;;;;;;7.28;4.35;;;19.20;99.90;;;;;;5053255;28;20108;-77
2023/08/05 12:10:20;;;;;;;7.50;4.25;;;19.20;99.90;;;;;;5053515;28;20025;-77
2023/08/05 12:12:50;;;;;;;5.18;3.88;;;19.20;99.90;;;;;;5053054;28;20033;-77
2023/08/05 12:15:27;;;;;;;6.40;4.18;;;19.20;99.90;;;;;;5053158;28;20377;-77
2023/08/05 12:17:57;;;;;;;6.38;3.50;;;19.30;99.90;;;;;;5053170;28;20025;-77
2023/08/05 12:20:45;;;;;;;9.95;4.25;;;19.40;99.90;;;;;;5053677;28;20147;-75
2023/08/05 12:23:11;;;;;;;7.40;4.30;;;19.40;99.90;;;;;;5053729;28;20096;-76
2023/08/05 12:25:36;;;;;;;8.23;4.40;;;19.40;99.90;;;;;;5053127;28;20028;-75
2023/08/05 12:28:02;;;;;;;6.43;3.90;;;19.30;99.90;;;;;;5052813;28;20025;-76
2023/08/05 12:30:28;;;;;;;6.32;4.20;;;19.30;99.90;;;;;;5053297;28;20095;-75
2023/08/05 12:32:56;;;;;;;7.80;4.43;;;19.40;99.90;;;;;;5052953;28;20079;-74